sensor_id;sensor_type;location;lat;lon;timestamp;pressure;altitude;pressure_sealevel;temperature;humidity
48027;BME280;50714;49.208;5.364;2022-11-30T00:07:40;99943.50;;;7.49;93.47
48027;BME280;50714;49.208;5.364;2022-11-30T00:17:40;99930.75;;;7.51;93.64
48027;BME280;50714;49.208;5.364;2022-11-30T00:27:41;99934.44;;;7.50;93.65
48027;BME280;50714;49.208;5.364;2022-11-30T00:37:41;99924.38;;;7.52;93.92
48027;BME280;50714;49.208;5.364;2022-11-30T00:47:41;99926.72;;;7.47;93.83
48027;BME280;50714;49.208;5.364;2022-11-30T00:57:42;99931.44;;;7.45;93.52
48027;BME280;50714;49.208;5.364;2022-11-30T01:07:42;99926.41;;;7.42;93.62
48027;BME280;50714;49.208;5.364;2022-11-30T01:17:42;99931.09;;;7.40;93.79
48027;BME280;50714;49.208;5.364;2022-11-30T01:27:43;99930.09;;;7.33;93.22
48027;BME280;50714;49.208;5.364;2022-11-30T01:37:43;99933.81;;;7.32;93.70
48027;BME280;50714;49.208;5.364;2022-11-30T01:47:47;99934.50;;;7.26;93.73
48027;BME280;50714;49.208;5.364;2022-11-30T01:57:55;99933.31;;;7.28;94.15
48027;BME280;50714;49.208;5.364;2022-11-30T02:07:56;99933.50;;;7.27;93.42
48027;BME280;50714;49.208;5.364;2022-11-30T02:18:03;99928.13;;;7.27;94.08
48027;BME280;50714;49.208;5.364;2022-11-30T02:38:43;99919.22;;;7.26;93.53
48027;BME280;50714;49.208;5.364;2022-11-30T02:48:58;99925.63;;;7.17;93.06
48027;BME280;50714;49.208;5.364;2022-11-30T02:59:02;99934.88;;;7.06;92.76
48027;BME280;50714;49.208;5.364;2022-11-30T03:09:03;99921.47;;;6.98;92.80
48027;BME280;50714;49.208;5.364;2022-11-30T03:19:03;99922.66;;;6.79;92.66
48027;BME280;50714;49.208;5.364;2022-11-30T03:29:04;99926.69;;;6.67;92.59
48027;BME280;50714;49.208;5.364;2022-11-30T03:39:05;99925.69;;;6.52;92.40
48027;BME280;50714;49.208;5.364;2022-11-30T03:49:05;99921.97;;;6.45;91.85
48027;BME280;50714;49.208;5.364;2022-11-30T03:59:06;99927.63;;;6.18;91.37
48027;BME280;50714;49.208;5.364;2022-11-30T04:09:08;99922.44;;;6.08;91.55
48027;BME280;50714;49.208;5.364;2022-11-30T04:19:08;99921.66;;;5.81;90.35
48027;BME280;50714;49.208;5.364;2022-11-30T04:29:09;99933.00;;;5.75;90.89
48027;BME280;50714;49.208;5.364;2022-11-30T04:39:10;99922.44;;;5.66;90.38
48027;BME280;50714;49.208;5.364;2022-11-30T04:49:10;99922.72;;;5.55;91.14
48027;BME280;50714;49.208;5.364;2022-11-30T04:59:10;99917.81;;;5.42;91.19
48027;BME280;50714;49.208;5.364;2022-11-30T05:09:11;99930.72;;;5.21;91.52
48027;BME280;50714;49.208;5.364;2022-11-30T05:19:11;99925.22;;;4.96;91.21
48027;BME280;50714;49.208;5.364;2022-11-30T05:29:12;99929.78;;;4.78;91.36
48027;BME280;50714;49.208;5.364;2022-11-30T05:39:13;99933.53;;;4.85;91.75
48027;BME280;50714;49.208;5.364;2022-11-30T05:49:13;99943.06;;;4.88;91.10
48027;BME280;50714;49.208;5.364;2022-11-30T05:59:13;99954.06;;;4.85;91.01
48027;BME280;50714;49.208;5.364;2022-11-30T06:09:14;99953.00;;;4.77;90.61
48027;BME280;50714;49.208;5.364;2022-11-30T06:19:14;99948.06;;;4.65;89.85
48027;BME280;50714;49.208;5.364;2022-11-30T06:29:14;99947.84;;;4.58;90.45
48027;BME280;50714;49.208;5.364;2022-11-30T06:39:15;99957.38;;;4.61;89.71
48027;BME280;50714;49.208;5.364;2022-11-30T06:49:15;99961.91;;;4.60;89.95
48027;BME280;50714;49.208;5.364;2022-11-30T06:59:15;99964.03;;;4.57;89.59
48027;BME280;50714;49.208;5.364;2022-11-30T07:09:16;99960.13;;;4.51;89.71
48027;BME280;50714;49.208;5.364;2022-11-30T07:19:16;99970.97;;;4.50;90.02
48027;BME280;50714;49.208;5.364;2022-11-30T07:29:17;99978.09;;;4.59;90.83
48027;BME280;50714;49.208;5.364;2022-11-30T07:39:17;99985.34;;;4.66;90.00
48027;BME280;50714;49.208;5.364;2022-11-30T07:49:18;99996.94;;;4.75;90.53
48027;BME280;50714;49.208;5.364;2022-11-30T07:59:18;100003.69;;;5.05;91.44
48027;BME280;50714;49.208;5.364;2022-11-30T08:09:18;100005.09;;;5.35;91.61
48027;BME280;50714;49.208;5.364;2022-11-30T08:19:19;100010.69;;;5.49;90.92
48027;BME280;50714;49.208;5.364;2022-11-30T08:29:19;100021.53;;;5.74;91.48
48027;BME280;50714;49.208;5.364;2022-11-30T08:39:19;100021.50;;;5.92;90.80
48027;BME280;50714;49.208;5.364;2022-11-30T08:49:20;100025.78;;;6.10;90.64
48027;BME280;50714;49.208;5.364;2022-11-30T08:59:22;100025.84;;;6.35;90.47
48027;BME280;50714;49.208;5.364;2022-11-30T09:09:22;100029.75;;;6.57;90.62
48027;BME280;50714;49.208;5.364;2022-11-30T09:19:24;100039.16;;;6.85;90.64
48027;BME280;50714;49.208;5.364;2022-11-30T09:29:24;100032.31;;;7.23;90.62
48027;BME280;50714;49.208;5.364;2022-11-30T09:39:24;100042.84;;;7.65;89.50
48027;BME280;50714;49.208;5.364;2022-11-30T09:49:34;100042.00;;;7.65;88.41
48027;BME280;50714;49.208;5.364;2022-11-30T09:59:36;100032.09;;;7.57;88.52
48027;BME280;50714;49.208;5.364;2022-11-30T10:09:46;100030.91;;;7.60;89.10
48027;BME280;50714;49.208;5.364;2022-11-30T10:30:23;100014.88;;;7.91;89.76
48027;BME280;50714;49.208;5.364;2022-11-30T10:40:37;100009.59;;;8.13;88.05
48027;BME280;50714;49.208;5.364;2022-11-30T10:50:42;100005.47;;;8.34;87.81
48027;BME280;50714;49.208;5.364;2022-11-30T11:00:51;99998.53;;;8.47;86.99
48027;BME280;50714;49.208;5.364;2022-11-30T11:10:53;99987.69;;;8.55;85.87
48027;BME280;50714;49.208;5.364;2022-11-30T11:31:57;99994.91;;;8.55;85.52
48027;BME280;50714;49.208;5.364;2022-11-30T11:41:39;99992.97;;;8.49;86.54
48027;BME280;50714;49.208;5.364;2022-11-30T11:51:39;99986.44;;;8.66;86.71
48027;BME280;50714;49.208;5.364;2022-11-30T12:01:51;99981.53;;;8.93;86.30
48027;BME280;50714;49.208;5.364;2022-11-30T12:11:54;99974.94;;;9.18;85.68
48027;BME280;50714;49.208;5.364;2022-11-30T13:03:47;99972.56;;;9.82;82.95
48027;BME280;50714;49.208;5.364;2022-11-30T13:13:52;99970.13;;;9.87;82.57
48027;BME280;50714;49.208;5.364;2022-11-30T13:33:58;99953.94;;;9.72;80.28
48027;BME280;50714;49.208;5.364;2022-11-30T13:43:59;99964.00;;;9.64;80.97
48027;BME280;50714;49.208;5.364;2022-11-30T14:04:44;99973.38;;;9.38;81.59
48027;BME280;50714;49.208;5.364;2022-11-30T14:14:46;99973.63;;;9.29;81.33
48027;BME280;50714;49.208;5.364;2022-11-30T14:24:48;99975.66;;;9.27;82.01
48027;BME280;50714;49.208;5.364;2022-11-30T14:34:50;99975.59;;;9.20;81.76
48027;BME280;50714;49.208;5.364;2022-11-30T14:44:52;99969.25;;;9.13;82.31
48027;BME280;50714;49.208;5.364;2022-11-30T14:55:09;99978.88;;;9.07;82.02
48027;BME280;50714;49.208;5.364;2022-11-30T15:05:22;99974.56;;;8.98;82.10
48027;BME280;50714;49.208;5.364;2022-11-30T15:15:27;99976.22;;;8.84;83.94
48027;BME280;50714;49.208;5.364;2022-11-30T15:25:41;99985.34;;;8.75;85.22
48027;BME280;50714;49.208;5.364;2022-11-30T15:35:46;99982.22;;;8.72;85.29
48027;BME280;50714;49.208;5.364;2022-11-30T15:45:55;99989.13;;;8.66;85.21
48027;BME280;50714;49.208;5.364;2022-11-30T16:06:02;99996.09;;;8.52;85.87
48027;BME280;50714;49.208;5.364;2022-11-30T16:16:10;100002.88;;;8.48;85.60
48027;BME280;50714;49.208;5.364;2022-11-30T16:26:12;100008.72;;;8.52;85.31
48027;BME280;50714;49.208;5.364;2022-11-30T16:36:18;100004.59;;;8.41;81.78
48027;BME280;50714;49.208;5.364;2022-11-30T16:46:21;100025.16;;;8.26;80.74
48027;BME280;50714;49.208;5.364;2022-11-30T16:56:22;100026.03;;;8.18;80.29
48027;BME280;50714;49.208;5.364;2022-11-30T17:06:23;100036.66;;;8.04;79.87
48027;BME280;50714;49.208;5.364;2022-11-30T17:16:25;100040.06;;;7.98;79.68
48027;BME280;50714;49.208;5.364;2022-11-30T17:26:26;100054.53;;;7.88;79.31
48027;BME280;50714;49.208;5.364;2022-11-30T17:36:27;100053.53;;;7.81;79.33
48027;BME280;50714;49.208;5.364;2022-11-30T17:46:28;100072.38;;;7.73;79.00
48027;BME280;50714;49.208;5.364;2022-11-30T17:56:28;100076.25;;;7.71;79.24
48027;BME280;50714;49.208;5.364;2022-11-30T18:06:29;100093.69;;;7.67;79.46
48027;BME280;50714;49.208;5.364;2022-11-30T18:16:32;100102.44;;;7.61;79.11
48027;BME280;50714;49.208;5.364;2022-11-30T18:26:33;100109.16;;;7.57;79.22
48027;BME280;50714;49.208;5.364;2022-11-30T18:36:34;100111.84;;;7.57;79.44
48027;BME280;50714;49.208;5.364;2022-11-30T18:46:35;100108.66;;;7.53;79.60
48027;BME280;50714;49.208;5.364;2022-11-30T18:56:37;100100.94;;;7.50;79.49
48027;BME280;50714;49.208;5.364;2022-11-30T19:06:39;100091.53;;;7.46;79.53
48027;BME280;50714;49.208;5.364;2022-11-30T19:16:40;100104.28;;;7.36;79.41
48027;BME280;50714;49.208;5.364;2022-11-30T19:26:40;100107.47;;;7.23;79.20
48027;BME280;50714;49.208;5.364;2022-11-30T19:36:41;100107.78;;;7.12;79.69
48027;BME280;50714;49.208;5.364;2022-11-30T19:46:41;100113.50;;;7.01;80.34
48027;BME280;50714;49.208;5.364;2022-11-30T19:56:41;100111.13;;;6.90;80.01
48027;BME280;50714;49.208;5.364;2022-11-30T20:06:43;100114.09;;;6.70;80.34
48027;BME280;50714;49.208;5.364;2022-11-30T20:16:43;100114.91;;;6.63;80.47
48027;BME280;50714;49.208;5.364;2022-11-30T20:26:44;100121.63;;;6.67;80.79
48027;BME280;50714;49.208;5.364;2022-11-30T20:36:44;100120.25;;;6.63;80.78
48027;BME280;50714;49.208;5.364;2022-11-30T20:46:45;100126.41;;;6.47;80.71
48027;BME280;50714;49.208;5.364;2022-11-30T20:56:45;100122.38;;;6.43;80.70
48027;BME280;50714;49.208;5.364;2022-11-30T21:06:45;100122.00;;;6.38;81.12
48027;BME280;50714;49.208;5.364;2022-11-30T21:16:46;100122.22;;;6.44;81.29
48027;BME280;50714;49.208;5.364;2022-11-30T21:26:46;100125.94;;;6.52;81.21
48027;BME280;50714;49.208;5.364;2022-11-30T21:36:46;100121.63;;;6.59;81.29
48027;BME280;50714;49.208;5.364;2022-11-30T21:46:48;100125.81;;;6.61;80.58
48027;BME280;50714;49.208;5.364;2022-11-30T21:56:48;100127.16;;;6.65;81.02
48027;BME280;50714;49.208;5.364;2022-11-30T22:06:51;100126.81;;;6.68;80.42
48027;BME280;50714;49.208;5.364;2022-11-30T22:16:51;100124.66;;;6.72;80.51
48027;BME280;50714;49.208;5.364;2022-11-30T22:26:52;100123.50;;;6.74;80.17
48027;BME280;50714;49.208;5.364;2022-11-30T22:36:52;100138.13;;;6.80;79.94
48027;BME280;50714;49.208;5.364;2022-11-30T22:46:52;100145.00;;;6.82;79.68
48027;BME280;50714;49.208;5.364;2022-11-30T22:56:53;100134.75;;;6.86;79.50
48027;BME280;50714;49.208;5.364;2022-11-30T23:06:53;100126.38;;;6.81;80.21
48027;BME280;50714;49.208;5.364;2022-11-30T23:16:53;100119.34;;;6.80;79.57
48027;BME280;50714;49.208;5.364;2022-11-30T23:26:54;100114.97;;;6.79;80.07
48027;BME280;50714;49.208;5.364;2022-11-30T23:36:54;100108.75;;;6.78;80.05
48027;BME280;50714;49.208;5.364;2022-11-30T23:46:54;100115.28;;;6.76;80.32
48027;BME280;50714;49.208;5.364;2022-11-30T23:56:55;100111.59;;;6.77;80.38
